sensor_id;sensor_type;location;lat;lon;timestamp;pressure;altitude;pressure_sealevel;temperature;humidity
28510;BME280;15723;55.684;37.928;2022-10-16T00:00:32;101339.63;;;6.31;63.60
28510;BME280;15723;55.684;37.928;2022-10-16T00:02:58;101328.56;;;6.43;63.00
28510;BME280;15723;55.684;37.928;2022-10-16T00:05:24;101337.88;;;6.30;63.58
28510;BME280;15723;55.684;37.928;2022-10-16T00:07:50;101335.72;;;6.07;64.19
28510;BME280;15723;55.684;37.928;2022-10-16T00:10:16;101339.25;;;6.10;63.89
28510;BME280;15723;55.684;37.928;2022-10-16T00:12:42;101343.56;;;6.17;63.65
28510;BME280;15723;55.684;37.928;2022-10-16T00:15:08;101346.41;;;6.11;63.90
28510;BME280;15723;55.684;37.928;2022-10-16T00:17:35;101348.31;;;6.06;63.80
28510;BME280;15723;55.684;37.928;2022-10-16T00:20:01;101353.06;;;5.97;64.25
28510;BME280;15723;55.684;37.928;2022-10-16T00:22:45;101355.63;;;6.01;64.43
28510;BME280;15723;55.684;37.928;2022-10-16T00:25:11;101360.09;;;6.02;64.33
28510;BME280;15723;55.684;37.928;2022-10-16T00:27:37;101360.25;;;5.96;64.43
28510;BME280;15723;55.684;37.928;2022-10-16T00:30:03;101356.78;;;5.88;64.52
28510;BME280;15723;55.684;37.928;2022-10-16T00:32:30;101358.50;;;5.92;64.15
28510;BME280;15723;55.684;37.928;2022-10-16T00:34:56;101353.81;;;6.02;64.06
28510;BME280;15723;55.684;37.928;2022-10-16T00:37:22;101360.53;;;5.81;64.70
28510;BME280;15723;55.684;37.928;2022-10-16T00:39:48;101362.69;;;5.65;65.10
28510;BME280;15723;55.684;37.928;2022-10-16T00:42:15;101358.13;;;5.69;65.02
28510;BME280;15723;55.684;37.928;2022-10-16T00:47:10;101359.72;;;5.77;64.90
28510;BME280;15723;55.684;37.928;2022-10-16T00:49:36;101361.66;;;5.71;65.11
28510;BME280;15723;55.684;37.928;2022-10-16T00:52:02;101365.41;;;5.63;65.09
28510;BME280;15723;55.684;37.928;2022-10-16T00:54:29;101360.56;;;5.79;64.46
28510;BME280;15723;55.684;37.928;2022-10-16T00:56:57;101357.09;;;5.74;64.58
28510;BME280;15723;55.684;37.928;2022-10-16T00:59:41;101364.53;;;5.63;65.00
28510;BME280;15723;55.684;37.928;2022-10-16T01:02:09;101372.63;;;5.61;65.32
28510;BME280;15723;55.684;37.928;2022-10-16T01:04:39;101368.13;;;5.62;65.26
28510;BME280;15723;55.684;37.928;2022-10-16T01:12:12;101378.69;;;5.28;66.67
28510;BME280;15723;55.684;37.928;2022-10-16T01:14:43;101369.47;;;5.40;66.21
28510;BME280;15723;55.684;37.928;2022-10-16T01:17:12;101373.59;;;5.57;65.62
28510;BME280;15723;55.684;37.928;2022-10-16T01:22:07;101380.16;;;5.44;65.87
28510;BME280;15723;55.684;37.928;2022-10-16T01:24:43;101373.09;;;5.39;66.04
28510;BME280;15723;55.684;37.928;2022-10-16T01:29:38;101387.53;;;5.34;66.23
28510;BME280;15723;55.684;37.928;2022-10-16T01:32:09;101382.84;;;5.44;65.98
28510;BME280;15723;55.684;37.928;2022-10-16T01:34:42;101396.50;;;5.35;66.33
28510;BME280;15723;55.684;37.928;2022-10-16T01:37:12;101389.16;;;5.43;66.46
28510;BME280;15723;55.684;37.928;2022-10-16T01:39:41;101388.47;;;5.33;66.71
28510;BME280;15723;55.684;37.928;2022-10-16T01:42:09;101394.88;;;5.26;66.95
28510;BME280;15723;55.684;37.928;2022-10-16T01:44:37;101391.31;;;5.26;66.71
28510;BME280;15723;55.684;37.928;2022-10-16T01:47:04;101401.38;;;5.15;67.19
28510;BME280;15723;55.684;37.928;2022-10-16T01:49:33;101399.13;;;5.38;66.25
28510;BME280;15723;55.684;37.928;2022-10-16T01:52:00;101398.84;;;5.52;66.26
28510;BME280;15723;55.684;37.928;2022-10-16T01:54:28;101403.44;;;5.47;66.69
28510;BME280;15723;55.684;37.928;2022-10-16T01:56:56;101408.31;;;5.28;66.78
28510;BME280;15723;55.684;37.928;2022-10-16T01:59:23;101410.25;;;5.20;67.17
28510;BME280;15723;55.684;37.928;2022-10-16T02:01:59;101397.28;;;5.42;66.23
28510;BME280;15723;55.684;37.928;2022-10-16T02:04:28;101406.34;;;5.36;66.49
28510;BME280;15723;55.684;37.928;2022-10-16T02:06:55;101407.50;;;5.24;66.83
28510;BME280;15723;55.684;37.928;2022-10-16T02:09:21;101409.22;;;5.28;66.39
28510;BME280;15723;55.684;37.928;2022-10-16T02:11:47;101404.00;;;5.18;66.66
28510;BME280;15723;55.684;37.928;2022-10-16T02:14:14;101408.59;;;5.13;67.15
28510;BME280;15723;55.684;37.928;2022-10-16T02:16:43;101409.31;;;5.22;66.94
28510;BME280;15723;55.684;37.928;2022-10-16T02:19:11;101404.50;;;4.92;67.58
28510;BME280;15723;55.684;37.928;2022-10-16T02:21:47;101406.09;;;5.02;67.27
28510;BME280;15723;55.684;37.928;2022-10-16T02:29:36;101410.16;;;4.74;68.33
28510;BME280;15723;55.684;37.928;2022-10-16T02:32:05;101421.75;;;4.77;68.32
28510;BME280;15723;55.684;37.928;2022-10-16T02:34:33;101417.47;;;4.65;68.65
28510;BME280;15723;55.684;37.928;2022-10-16T02:36:59;101416.56;;;4.66;68.59
28510;BME280;15723;55.684;37.928;2022-10-16T02:39:27;101415.63;;;4.69;68.47
28510;BME280;15723;55.684;37.928;2022-10-16T02:41:54;101419.19;;;4.69;68.59
28510;BME280;15723;55.684;37.928;2022-10-16T02:44:20;101418.16;;;4.78;68.03
28510;BME280;15723;55.684;37.928;2022-10-16T02:46:46;101420.44;;;4.49;69.39
28510;BME280;15723;55.684;37.928;2022-10-16T02:49:12;101423.59;;;4.75;68.37
28510;BME280;15723;55.684;37.928;2022-10-16T02:51:38;101420.00;;;4.76;68.37
28510;BME280;15723;55.684;37.928;2022-10-16T02:54:04;101426.38;;;4.69;68.87
28510;BME280;15723;55.684;37.928;2022-10-16T02:56:30;101427.25;;;4.71;68.83
28510;BME280;15723;55.684;37.928;2022-10-16T02:58:56;101429.44;;;4.45;69.67
28510;BME280;15723;55.684;37.928;2022-10-16T03:01:23;101427.38;;;4.63;69.03
28510;BME280;15723;55.684;37.928;2022-10-16T03:03:49;101425.72;;;4.55;69.24
28510;BME280;15723;55.684;37.928;2022-10-16T03:06:15;101430.56;;;4.31;70.47
28510;BME280;15723;55.684;37.928;2022-10-16T03:08:41;101434.34;;;4.18;71.32
28510;BME280;15723;55.684;37.928;2022-10-16T03:11:07;101431.16;;;4.52;69.59
28510;BME280;15723;55.684;37.928;2022-10-16T03:13:33;101436.53;;;4.52;69.57
28510;BME280;15723;55.684;37.928;2022-10-16T03:15:59;101424.97;;;4.44;69.83
28510;BME280;15723;55.684;37.928;2022-10-16T03:18:25;101434.88;;;4.42;69.54
28510;BME280;15723;55.684;37.928;2022-10-16T03:20:51;101439.66;;;4.21;70.55
28510;BME280;15723;55.684;37.928;2022-10-16T03:23:17;101434.34;;;4.18;70.99
28510;BME280;15723;55.684;37.928;2022-10-16T03:25:43;101434.28;;;4.21;70.57
28510;BME280;15723;55.684;37.928;2022-10-16T03:28:09;101430.69;;;4.22;70.66
28510;BME280;15723;55.684;37.928;2022-10-16T03:30:35;101439.34;;;4.43;69.58
28510;BME280;15723;55.684;37.928;2022-10-16T03:33:01;101436.78;;;4.33;70.33
28510;BME280;15723;55.684;37.928;2022-10-16T03:35:27;101436.69;;;4.41;70.05
28510;BME280;15723;55.684;37.928;2022-10-16T03:37:53;101442.19;;;4.33;70.23
28510;BME280;15723;55.684;37.928;2022-10-16T03:40:19;101437.97;;;4.16;70.45
28510;BME280;15723;55.684;37.928;2022-10-16T03:42:45;101440.34;;;4.35;69.82
28510;BME280;15723;55.684;37.928;2022-10-16T03:45:11;101444.03;;;4.28;70.16
28510;BME280;15723;55.684;37.928;2022-10-16T03:47:37;101456.63;;;4.26;71.10
28510;BME280;15723;55.684;37.928;2022-10-16T03:50:04;101449.69;;;4.10;71.01
28510;BME280;15723;55.684;37.928;2022-10-16T03:52:30;101449.78;;;4.01;71.54
28510;BME280;15723;55.684;37.928;2022-10-16T03:54:56;101454.25;;;4.02;71.45
28510;BME280;15723;55.684;37.928;2022-10-16T03:57:22;101442.59;;;4.03;71.34
28510;BME280;15723;55.684;37.928;2022-10-16T03:59:48;101454.31;;;3.97;71.42
28510;BME280;15723;55.684;37.928;2022-10-16T04:02:14;101442.66;;;3.98;71.71
28510;BME280;15723;55.684;37.928;2022-10-16T04:04:40;101448.91;;;3.99;72.08
28510;BME280;15723;55.684;37.928;2022-10-16T04:07:06;101452.84;;;4.39;70.83
28510;BME280;15723;55.684;37.928;2022-10-16T04:09:32;101451.06;;;4.38;70.40
28510;BME280;15723;55.684;37.928;2022-10-16T04:11:58;101446.41;;;4.51;70.72
28510;BME280;15723;55.684;37.928;2022-10-16T04:14:24;101451.84;;;4.48;71.05
28510;BME280;15723;55.684;37.928;2022-10-16T04:16:50;101450.53;;;4.72;69.85
28510;BME280;15723;55.684;37.928;2022-10-16T04:19:16;101456.41;;;4.98;68.59
28510;BME280;15723;55.684;37.928;2022-10-16T04:21:42;101453.13;;;5.32;68.45
28510;BME280;15723;55.684;37.928;2022-10-16T04:24:08;101452.34;;;5.25;68.57
28510;BME280;15723;55.684;37.928;2022-10-16T04:26:34;101453.94;;;6.25;65.89
28510;BME280;15723;55.684;37.928;2022-10-16T04:29:00;101449.34;;;6.67;62.92
28510;BME280;15723;55.684;37.928;2022-10-16T04:31:26;101446.56;;;7.09;63.34
28510;BME280;15723;55.684;37.928;2022-10-16T04:33:52;101443.19;;;7.66;60.39
28510;BME280;15723;55.684;37.928;2022-10-16T04:36:18;101451.47;;;7.92;58.98
28510;BME280;15723;55.684;37.928;2022-10-16T04:38:44;101439.72;;;8.52;59.38
28510;BME280;15723;55.684;37.928;2022-10-16T04:41:10;101454.91;;;8.58;58.77
28510;BME280;15723;55.684;37.928;2022-10-16T04:43:36;101448.09;;;8.72;57.48
28510;BME280;15723;55.684;37.928;2022-10-16T04:46:02;101441.56;;;9.82;55.32
28510;BME280;15723;55.684;37.928;2022-10-16T04:48:30;101440.28;;;9.92;54.13
28510;BME280;15723;55.684;37.928;2022-10-16T04:50:56;101441.50;;;10.09;53.74
28510;BME280;15723;55.684;37.928;2022-10-16T04:53:22;101444.34;;;10.52;52.46
28510;BME280;15723;55.684;37.928;2022-10-16T04:55:49;101447.44;;;10.87;50.62
28510;BME280;15723;55.684;37.928;2022-10-16T04:58:15;101446.06;;;11.41;49.35
28510;BME280;15723;55.684;37.928;2022-10-16T05:00:41;101444.03;;;11.04;49.71
28510;BME280;15723;55.684;37.928;2022-10-16T05:03:07;101450.13;;;11.71;48.65
28510;BME280;15723;55.684;37.928;2022-10-16T05:05:34;101450.31;;;10.84;49.70
28510;BME280;15723;55.684;37.928;2022-10-16T05:08:01;101443.56;;;12.16;46.68
28510;BME280;15723;55.684;37.928;2022-10-16T05:10:27;101438.03;;;11.99;46.17
28510;BME280;15723;55.684;37.928;2022-10-16T05:12:53;101437.19;;;13.45;44.24
28510;BME280;15723;55.684;37.928;2022-10-16T05:15:19;101437.44;;;13.41;43.74
28510;BME280;15723;55.684;37.928;2022-10-16T05:17:45;101442.22;;;13.36;43.43
28510;BME280;15723;55.684;37.928;2022-10-16T05:20:11;101434.75;;;13.74;43.32
28510;BME280;15723;55.684;37.928;2022-10-16T05:22:41;101432.97;;;13.73;42.68
28510;BME280;15723;55.684;37.928;2022-10-16T05:25:07;101441.25;;;14.55;40.93
28510;BME280;15723;55.684;37.928;2022-10-16T05:27:33;101441.66;;;13.81;41.49
28510;BME280;15723;55.684;37.928;2022-10-16T05:29:59;101440.63;;;14.97;40.47
28510;BME280;15723;55.684;37.928;2022-10-16T05:32:25;101440.69;;;15.27;38.95
28510;BME280;15723;55.684;37.928;2022-10-16T05:34:51;101443.22;;;14.35;40.15
28510;BME280;15723;55.684;37.928;2022-10-16T05:37:17;101437.69;;;15.61;38.65
28510;BME280;15723;55.684;37.928;2022-10-16T05:39:43;101443.28;;;15.74;38.81
28510;BME280;15723;55.684;37.928;2022-10-16T05:42:09;101448.47;;;15.79;38.23
28510;BME280;15723;55.684;37.928;2022-10-16T05:44:35;101452.75;;;15.99;37.81
28510;BME280;15723;55.684;37.928;2022-10-16T05:47:01;101446.75;;;16.49;36.73
28510;BME280;15723;55.684;37.928;2022-10-16T05:49:27;101440.50;;;17.02;35.99
28510;BME280;15723;55.684;37.928;2022-10-16T05:51:54;101445.69;;;17.07;35.66
28510;BME280;15723;55.684;37.928;2022-10-16T05:54:20;101451.47;;;16.47;36.44
28510;BME280;15723;55.684;37.928;2022-10-16T05:56:46;101453.81;;;17.35;35.42
28510;BME280;15723;55.684;37.928;2022-10-16T05:59:12;101450.66;;;16.87;35.70
28510;BME280;15723;55.684;37.928;2022-10-16T06:01:38;101447.50;;;18.00;33.53
28510;BME280;15723;55.684;37.928;2022-10-16T06:04:04;101454.59;;;17.37;34.53
28510;BME280;15723;55.684;37.928;2022-10-16T06:06:30;101452.06;;;18.76;32.83
28510;BME280;15723;55.684;37.928;2022-10-16T06:08:56;101450.63;;;17.41;33.80
28510;BME280;15723;55.684;37.928;2022-10-16T06:11:24;101450.03;;;17.90;33.24
28510;BME280;15723;55.684;37.928;2022-10-16T06:13:51;101455.31;;;17.54;33.19
28510;BME280;15723;55.684;37.928;2022-10-16T06:16:17;101457.63;;;18.99;32.42
28510;BME280;15723;55.684;37.928;2022-10-16T06:18:44;101450.25;;;18.00;33.50
28510;BME280;15723;55.684;37.928;2022-10-16T06:21:11;101449.66;;;18.71;32.00
28510;BME280;15723;55.684;37.928;2022-10-16T06:23:37;101453.53;;;18.05;33.54
28510;BME280;15723;55.684;37.928;2022-10-16T06:26:04;101453.41;;;18.70;32.32
28510;BME280;15723;55.684;37.928;2022-10-16T06:28:30;101451.66;;;18.05;32.46
28510;BME280;15723;55.684;37.928;2022-10-16T06:30:59;101449.13;;;18.66;31.82
28510;BME280;15723;55.684;37.928;2022-10-16T06:33:26;101444.84;;;19.22;31.50
28510;BME280;15723;55.684;37.928;2022-10-16T06:35:52;101452.47;;;19.43;30.84
28510;BME280;15723;55.684;37.928;2022-10-16T06:38:18;101460.38;;;19.23;30.85
28510;BME280;15723;55.684;37.928;2022-10-16T06:40:44;101459.91;;;18.69;31.80
28510;BME280;15723;55.684;37.928;2022-10-16T06:43:10;101457.56;;;19.60;30.37
28510;BME280;15723;55.684;37.928;2022-10-16T06:45:36;101459.88;;;18.82;31.17
28510;BME280;15723;55.684;37.928;2022-10-16T06:48:03;101451.09;;;20.18;29.20
28510;BME280;15723;55.684;37.928;2022-10-16T06:50:29;101456.66;;;20.41;29.62
28510;BME280;15723;55.684;37.928;2022-10-16T06:52:55;101467.72;;;19.35;30.26
28510;BME280;15723;55.684;37.928;2022-10-16T06:55:21;101455.94;;;19.57;30.12
28510;BME280;15723;55.684;37.928;2022-10-16T06:57:48;101468.94;;;20.70;29.46
28510;BME280;15723;55.684;37.928;2022-10-16T07:00:14;101460.69;;;20.81;28.84
28510;BME280;15723;55.684;37.928;2022-10-16T07:02:41;101471.88;;;19.65;30.11
28510;BME280;15723;55.684;37.928;2022-10-16T07:05:08;101459.94;;;20.57;29.31
28510;BME280;15723;55.684;37.928;2022-10-16T07:07:34;101463.31;;;20.83;28.80
28510;BME280;15723;55.684;37.928;2022-10-16T07:10:00;101465.94;;;20.62;28.95
28510;BME280;15723;55.684;37.928;2022-10-16T07:12:27;101464.50;;;21.12;28.53
28510;BME280;15723;55.684;37.928;2022-10-16T07:14:53;101470.22;;;20.88;28.88
28510;BME280;15723;55.684;37.928;2022-10-16T07:17:20;101470.81;;;20.81;29.11
28510;BME280;15723;55.684;37.928;2022-10-16T07:19:47;101471.91;;;20.34;29.13
28510;BME280;15723;55.684;37.928;2022-10-16T07:22:13;101473.84;;;20.55;29.13
28510;BME280;15723;55.684;37.928;2022-10-16T07:24:39;101473.91;;;21.64;27.36
28510;BME280;15723;55.684;37.928;2022-10-16T07:27:06;101474.88;;;22.98;26.47
28510;BME280;15723;55.684;37.928;2022-10-16T07:29:32;101475.97;;;22.25;26.79
28510;BME280;15723;55.684;37.928;2022-10-16T07:31:58;101481.19;;;21.65;27.93
28510;BME280;15723;55.684;37.928;2022-10-16T07:34:25;101463.28;;;22.22;27.93
28510;BME280;15723;55.684;37.928;2022-10-16T07:36:56;101474.72;;;21.76;27.72
28510;BME280;15723;55.684;37.928;2022-10-16T07:39:22;101465.41;;;22.09;27.93
28510;BME280;15723;55.684;37.928;2022-10-16T07:41:49;101467.81;;;22.74;27.28
28510;BME280;15723;55.684;37.928;2022-10-16T07:44:15;101461.28;;;22.24;27.45
28510;BME280;15723;55.684;37.928;2022-10-16T07:46:42;101468.69;;;23.05;26.23
28510;BME280;15723;55.684;37.928;2022-10-16T07:49:08;101466.78;;;23.06;26.26
28510;BME280;15723;55.684;37.928;2022-10-16T07:51:35;101466.38;;;21.66;27.18
28510;BME280;15723;55.684;37.928;2022-10-16T07:54:01;101458.31;;;22.16;26.86
28510;BME280;15723;55.684;37.928;2022-10-16T07:56:27;101458.16;;;22.38;26.93
28510;BME280;15723;55.684;37.928;2022-10-16T07:58:56;101457.16;;;22.39;26.27
28510;BME280;15723;55.684;37.928;2022-10-16T08:01:22;101465.13;;;23.03;26.09
28510;BME280;15723;55.684;37.928;2022-10-16T08:03:50;101467.38;;;21.22;29.22
28510;BME280;15723;55.684;37.928;2022-10-16T08:06:17;101467.25;;;21.88;27.94
28510;BME280;15723;55.684;37.928;2022-10-16T08:08:44;101465.13;;;22.33;26.07
28510;BME280;15723;55.684;37.928;2022-10-16T08:11:10;101457.22;;;22.28;26.61
28510;BME280;15723;55.684;37.928;2022-10-16T08:13:37;101463.41;;;21.47;28.26
28510;BME280;15723;55.684;37.928;2022-10-16T08:16:03;101461.84;;;21.33;28.03
28510;BME280;15723;55.684;37.928;2022-10-16T08:18:37;101468.66;;;19.71;30.16
28510;BME280;15723;55.684;37.928;2022-10-16T08:21:05;101461.72;;;19.65;30.44
28510;BME280;15723;55.684;37.928;2022-10-16T08:23:33;101467.91;;;19.32;31.58
28510;BME280;15723;55.684;37.928;2022-10-16T08:26:06;101469.88;;;19.19;31.52
28510;BME280;15723;55.684;37.928;2022-10-16T08:28:33;101466.97;;;19.33;31.11
28510;BME280;15723;55.684;37.928;2022-10-16T08:31:10;101463.50;;;18.57;31.91
28510;BME280;15723;55.684;37.928;2022-10-16T08:33:38;101463.75;;;17.90;33.79
28510;BME280;15723;55.684;37.928;2022-10-16T08:36:05;101480.63;;;17.44;34.23
28510;BME280;15723;55.684;37.928;2022-10-16T08:38:31;101471.44;;;16.77;34.83
28510;BME280;15723;55.684;37.928;2022-10-16T08:41:48;101476.81;;;16.08;36.90
28510;BME280;15723;55.684;37.928;2022-10-16T08:43:54;101467.13;;;16.02;36.88
28510;BME280;15723;55.684;37.928;2022-10-16T08:49:01;101471.72;;;14.47;39.58
28510;BME280;15723;55.684;37.928;2022-10-16T08:51:33;101477.66;;;14.38;40.28
28510;BME280;15723;55.684;37.928;2022-10-16T08:54:08;101468.41;;;14.58;39.64
28510;BME280;15723;55.684;37.928;2022-10-16T08:56:38;101469.19;;;14.76;39.54
28510;BME280;15723;55.684;37.928;2022-10-16T08:59:06;101469.88;;;14.48;41.52
28510;BME280;15723;55.684;37.928;2022-10-16T09:01:41;101464.00;;;14.22;41.67
28510;BME280;15723;55.684;37.928;2022-10-16T09:16:28;101471.69;;;13.81;42.49
28510;BME280;15723;55.684;37.928;2022-10-16T09:19:20;101465.03;;;13.87;42.01
28510;BME280;15723;55.684;37.928;2022-10-16T09:21:49;101468.91;;;14.16;41.33
28510;BME280;15723;55.684;37.928;2022-10-16T09:24:19;101463.47;;;13.98;42.04
28510;BME280;15723;55.684;37.928;2022-10-16T09:26:47;101456.81;;;13.87;41.92
28510;BME280;15723;55.684;37.928;2022-10-16T09:29:15;101461.06;;;13.92;41.31
28510;BME280;15723;55.684;37.928;2022-10-16T09:31:42;101466.16;;;13.83;42.00
28510;BME280;15723;55.684;37.928;2022-10-16T09:36:52;101457.72;;;13.87;41.35
28510;BME280;15723;55.684;37.928;2022-10-16T09:39:19;101458.28;;;13.59;41.43
28510;BME280;15723;55.684;37.928;2022-10-16T09:41:45;101459.38;;;13.72;40.64
28510;BME280;15723;55.684;37.928;2022-10-16T09:44:31;101459.75;;;13.49;41.04
28510;BME280;15723;55.684;37.928;2022-10-16T09:47:18;101449.47;;;13.54;41.08
28510;BME280;15723;55.684;37.928;2022-10-16T09:50:13;101458.53;;;13.55;40.78
28510;BME280;15723;55.684;37.928;2022-10-16T09:52:45;101447.63;;;13.55;40.75
28510;BME280;15723;55.684;37.928;2022-10-16T09:55:18;101450.94;;;13.94;41.37
28510;BME280;15723;55.684;37.928;2022-10-16T09:57:51;101442.56;;;13.82;40.70
28510;BME280;15723;55.684;37.928;2022-10-16T10:00:19;101447.50;;;13.91;40.77
28510;BME280;15723;55.684;37.928;2022-10-16T10:02:46;101452.75;;;13.78;40.56
28510;BME280;15723;55.684;37.928;2022-10-16T10:05:21;101449.13;;;13.60;41.53
28510;BME280;15723;55.684;37.928;2022-10-16T10:08:01;101448.09;;;13.80;40.83
28510;BME280;15723;55.684;37.928;2022-10-16T10:10:33;101437.84;;;14.01;39.18
28510;BME280;15723;55.684;37.928;2022-10-16T10:13:00;101442.47;;;13.83;40.29
28510;BME280;15723;55.684;37.928;2022-10-16T10:15:32;101445.66;;;13.74;39.59
28510;BME280;15723;55.684;37.928;2022-10-16T10:18:00;101442.84;;;13.93;38.76
28510;BME280;15723;55.684;37.928;2022-10-16T10:20:33;101450.75;;;13.82;39.27
28510;BME280;15723;55.684;37.928;2022-10-16T10:23:13;101436.06;;;13.50;39.98
28510;BME280;15723;55.684;37.928;2022-10-16T10:26:04;101441.97;;;13.75;39.16
28510;BME280;15723;55.684;37.928;2022-10-16T10:28:51;101435.03;;;13.52;40.41
28510;BME280;15723;55.684;37.928;2022-10-16T10:31:26;101431.94;;;13.24;40.05
28510;BME280;15723;55.684;37.928;2022-10-16T10:36:56;101432.22;;;13.54;39.96
28510;BME280;15723;55.684;37.928;2022-10-16T10:39:32;101436.75;;;13.70;40.62
28510;BME280;15723;55.684;37.928;2022-10-16T10:42:18;101423.00;;;13.39;40.60
28510;BME280;15723;55.684;37.928;2022-10-16T10:45:16;101436.84;;;13.34;40.08
28510;BME280;15723;55.684;37.928;2022-10-16T10:50:46;101433.00;;;13.56;39.68
28510;BME280;15723;55.684;37.928;2022-10-16T10:53:39;101424.44;;;13.46;40.23
28510;BME280;15723;55.684;37.928;2022-10-16T10:56:21;101426.19;;;13.47;39.77
28510;BME280;15723;55.684;37.928;2022-10-16T10:59:01;101422.75;;;13.43;40.35
28510;BME280;15723;55.684;37.928;2022-10-16T11:01:39;101436.84;;;13.34;40.31
28510;BME280;15723;55.684;37.928;2022-10-16T11:06:46;101428.34;;;13.58;40.11
28510;BME280;15723;55.684;37.928;2022-10-16T11:09:22;101423.44;;;13.64;39.66
28510;BME280;15723;55.684;37.928;2022-10-16T11:11:56;101425.13;;;13.32;41.40
28510;BME280;15723;55.684;37.928;2022-10-16T11:14:33;101412.97;;;13.39;41.59
28510;BME280;15723;55.684;37.928;2022-10-16T11:17:21;101407.72;;;13.35;40.57
28510;BME280;15723;55.684;37.928;2022-10-16T11:19:57;101407.75;;;13.52;40.94
28510;BME280;15723;55.684;37.928;2022-10-16T11:22:37;101399.84;;;13.63;40.87
28510;BME280;15723;55.684;37.928;2022-10-16T11:25:27;101391.53;;;13.49;40.96
28510;BME280;15723;55.684;37.928;2022-10-16T11:28:14;101412.63;;;13.45;40.81
28510;BME280;15723;55.684;37.928;2022-10-16T11:30:59;101404.94;;;13.19;40.91
28510;BME280;15723;55.684;37.928;2022-10-16T11:36:48;101418.47;;;13.21;41.93
28510;BME280;15723;55.684;37.928;2022-10-16T11:39:29;101413.19;;;13.52;40.62
28510;BME280;15723;55.684;37.928;2022-10-16T11:42:28;101398.91;;;13.47;41.21
28510;BME280;15723;55.684;37.928;2022-10-16T11:53:39;101405.44;;;13.08;41.81
28510;BME280;15723;55.684;37.928;2022-10-16T11:56:15;101396.81;;;13.18;41.79
28510;BME280;15723;55.684;37.928;2022-10-16T12:01:49;101400.41;;;13.01;42.19
28510;BME280;15723;55.684;37.928;2022-10-16T12:04:40;101388.72;;;12.97;42.71
28510;BME280;15723;55.684;37.928;2022-10-16T12:07:19;101387.28;;;13.26;42.89
28510;BME280;15723;55.684;37.928;2022-10-16T12:09:48;101382.34;;;13.15;42.16
28510;BME280;15723;55.684;37.928;2022-10-16T12:15:26;101389.72;;;13.13;41.58
28510;BME280;15723;55.684;37.928;2022-10-16T12:17:53;101395.06;;;12.98;41.98
28510;BME280;15723;55.684;37.928;2022-10-16T12:20:29;101392.06;;;13.04;41.59
28510;BME280;15723;55.684;37.928;2022-10-16T12:25:39;101391.19;;;13.03;42.30
28510;BME280;15723;55.684;37.928;2022-10-16T12:30:42;101393.75;;;13.06;42.35
28510;BME280;15723;55.684;37.928;2022-10-16T12:35:50;101392.69;;;13.09;44.00
28510;BME280;15723;55.684;37.928;2022-10-16T12:39:05;101377.91;;;12.96;42.54
28510;BME280;15723;55.684;37.928;2022-10-16T12:41:29;101379.75;;;12.95;43.61
28510;BME280;15723;55.684;37.928;2022-10-16T12:43:56;101379.16;;;13.07;43.53
28510;BME280;15723;55.684;37.928;2022-10-16T12:51:47;101359.06;;;12.74;43.38
28510;BME280;15723;55.684;37.928;2022-10-16T12:54:19;101367.81;;;12.62;43.08
28510;BME280;15723;55.684;37.928;2022-10-16T12:57:21;101369.56;;;12.45;43.38
28510;BME280;15723;55.684;37.928;2022-10-16T12:59:59;101381.03;;;12.52;44.96
28510;BME280;15723;55.684;37.928;2022-10-16T13:02:58;101385.13;;;12.61;45.05
28510;BME280;15723;55.684;37.928;2022-10-16T13:06:00;101379.69;;;12.61;44.56
28510;BME280;15723;55.684;37.928;2022-10-16T13:11:32;101381.69;;;12.57;44.50
28510;BME280;15723;55.684;37.928;2022-10-16T13:17:39;101381.19;;;12.49;44.97
28510;BME280;15723;55.684;37.928;2022-10-16T13:26:01;101371.38;;;12.26;45.14
28510;BME280;15723;55.684;37.928;2022-10-16T13:28:33;101374.25;;;12.23;45.29
28510;BME280;15723;55.684;37.928;2022-10-16T13:31:01;101376.47;;;12.15;45.86
28510;BME280;15723;55.684;37.928;2022-10-16T13:33:34;101374.41;;;12.20;45.32
28510;BME280;15723;55.684;37.928;2022-10-16T13:36:02;101380.75;;;12.20;45.29
28510;BME280;15723;55.684;37.928;2022-10-16T13:38:36;101375.16;;;12.24;44.88
28510;BME280;15723;55.684;37.928;2022-10-16T13:41:04;101377.16;;;12.01;46.12
28510;BME280;15723;55.684;37.928;2022-10-16T13:43:36;101385.53;;;12.15;45.77
28510;BME280;15723;55.684;37.928;2022-10-16T13:46:07;101385.53;;;11.97;45.68
28510;BME280;15723;55.684;37.928;2022-10-16T13:48:37;101383.63;;;11.99;46.24
28510;BME280;15723;55.684;37.928;2022-10-16T13:51:06;101379.53;;;11.88;46.18
28510;BME280;15723;55.684;37.928;2022-10-16T13:53:36;101381.38;;;11.88;46.28
28510;BME280;15723;55.684;37.928;2022-10-16T13:56:05;101380.50;;;11.87;46.36
28510;BME280;15723;55.684;37.928;2022-10-16T13:58:32;101373.97;;;11.92;46.91
28510;BME280;15723;55.684;37.928;2022-10-16T14:01:04;101379.09;;;11.79;46.88
28510;BME280;15723;55.684;37.928;2022-10-16T14:03:32;101377.56;;;11.72;46.60
28510;BME280;15723;55.684;37.928;2022-10-16T14:06:02;101378.88;;;11.83;46.33
28510;BME280;15723;55.684;37.928;2022-10-16T14:08:30;101363.75;;;11.57;47.42
28510;BME280;15723;55.684;37.928;2022-10-16T14:10:59;101370.88;;;11.40;47.71
28510;BME280;15723;55.684;37.928;2022-10-16T14:13:46;101374.69;;;11.36;48.27
28510;BME280;15723;55.684;37.928;2022-10-16T14:16:31;101374.69;;;11.36;48.76
28510;BME280;15723;55.684;37.928;2022-10-16T14:19:01;101372.97;;;11.33;48.13
28510;BME280;15723;55.684;37.928;2022-10-16T14:21:29;101365.56;;;11.37;47.60
28510;BME280;15723;55.684;37.928;2022-10-16T14:23:56;101359.19;;;11.17;48.18